sensor_id;sensor_type;location;lat;lon;timestamp;pressure;altitude;pressure_sealevel;temperature;humidity
57462;BME280;43308;47.306;8.608;2023-11-21T00:01:57;94879.75;;;9.12;59.85
57462;BME280;43308;47.306;8.608;2023-11-21T00:04:23;94876.78;;;9.14;60.20
57462;BME280;43308;47.306;8.608;2023-11-21T00:06:53;94881.03;;;9.15;60.84
57462;BME280;43308;47.306;8.608;2023-11-21T00:09:19;94893.56;;;9.14;60.66
57462;BME280;43308;47.306;8.608;2023-11-21T00:11:45;94887.94;;;9.16;60.73
57462;BME280;43308;47.306;8.608;2023-11-21T00:14:11;94885.56;;;9.14;61.08
57462;BME280;43308;47.306;8.608;2023-11-21T00:16:37;94867.81;;;9.10;60.72
57462;BME280;43308;47.306;8.608;2023-11-21T00:19:03;94870.19;;;9.11;60.64
57462;BME280;43308;47.306;8.608;2023-11-21T00:21:29;94875.22;;;9.13;60.90
57462;BME280;43308;47.306;8.608;2023-11-21T00:23:54;94868.31;;;9.12;61.14
57462;BME280;43308;47.306;8.608;2023-11-21T00:26:20;94866.72;;;9.11;61.81
57462;BME280;43308;47.306;8.608;2023-11-21T00:28:57;94871.09;;;9.06;62.04
57462;BME280;43308;47.306;8.608;2023-11-21T00:31:23;94873.75;;;9.06;60.50
57462;BME280;43308;47.306;8.608;2023-11-21T00:33:49;94880.81;;;9.11;60.53
57462;BME280;43308;47.306;8.608;2023-11-21T00:36:15;94880.03;;;9.11;60.96
57462;BME280;43308;47.306;8.608;2023-11-21T00:38:42;94876.09;;;9.08;60.88
57462;BME280;43308;47.306;8.608;2023-11-21T00:41:08;94873.44;;;9.08;60.44
57462;BME280;43308;47.306;8.608;2023-11-21T00:43:34;94871.09;;;9.06;60.69
57462;BME280;43308;47.306;8.608;2023-11-21T00:46:04;94876.28;;;9.12;60.01
57462;BME280;43308;47.306;8.608;2023-11-21T00:48:30;94857.94;;;9.10;59.74
57462;BME280;43308;47.306;8.608;2023-11-21T00:50:55;94862.69;;;9.13;59.81
57462;BME280;43308;47.306;8.608;2023-11-21T00:53:21;94862.38;;;9.15;60.20
57462;BME280;43308;47.306;8.608;2023-11-21T00:55:47;94865.66;;;9.12;59.76
57462;BME280;43308;47.306;8.608;2023-11-21T00:58:13;94865.84;;;9.15;59.79
57462;BME280;43308;47.306;8.608;2023-11-21T01:00:40;94853.31;;;9.16;60.52
57462;BME280;43308;47.306;8.608;2023-11-21T01:03:06;94849.66;;;9.12;60.54
57462;BME280;43308;47.306;8.608;2023-11-21T01:05:33;94853.41;;;9.11;60.69
57462;BME280;43308;47.306;8.608;2023-11-21T01:08:01;94852.72;;;9.05;60.92
57462;BME280;43308;47.306;8.608;2023-11-21T01:10:27;94859.72;;;9.01;61.39
57462;BME280;43308;47.306;8.608;2023-11-21T01:12:53;94858.97;;;9.00;61.30
57462;BME280;43308;47.306;8.608;2023-11-21T01:15:19;94860.50;;;9.01;61.52
57462;BME280;43308;47.306;8.608;2023-11-21T01:17:45;94850.66;;;9.02;60.76
57462;BME280;43308;47.306;8.608;2023-11-21T01:20:11;94854.31;;;9.06;60.67
57462;BME280;43308;47.306;8.608;2023-11-21T01:22:39;94850.06;;;9.05;60.06
57462;BME280;43308;47.306;8.608;2023-11-21T01:25:05;94862.31;;;9.06;60.49
57462;BME280;43308;47.306;8.608;2023-11-21T01:27:33;94856.19;;;9.05;60.20
57462;BME280;43308;47.306;8.608;2023-11-21T01:30:00;94858.06;;;9.05;60.02
57462;BME280;43308;47.306;8.608;2023-11-21T01:32:26;94854.31;;;9.06;59.91
57462;BME280;43308;47.306;8.608;2023-11-21T01:34:52;94861.72;;;9.09;60.54
57462;BME280;43308;47.306;8.608;2023-11-21T01:37:19;94849.28;;;9.04;60.39
57462;BME280;43308;47.306;8.608;2023-11-21T01:39:45;94844.75;;;9.05;59.86
57462;BME280;43308;47.306;8.608;2023-11-21T01:42:12;94837.16;;;8.98;60.35
57462;BME280;43308;47.306;8.608;2023-11-21T01:44:39;94836.94;;;8.95;60.26
57462;BME280;43308;47.306;8.608;2023-11-21T01:47:06;94828.00;;;8.91;60.66
57462;BME280;43308;47.306;8.608;2023-11-21T01:49:32;94828.47;;;8.93;60.15
57462;BME280;43308;47.306;8.608;2023-11-21T01:51:59;94832.72;;;8.94;60.14
57462;BME280;43308;47.306;8.608;2023-11-21T01:54:25;94835.47;;;8.89;60.16
57462;BME280;43308;47.306;8.608;2023-11-21T01:56:52;94835.69;;;8.92;60.41
57462;BME280;43308;47.306;8.608;2023-11-21T01:59:20;94830.06;;;8.94;59.95
57462;BME280;43308;47.306;8.608;2023-11-21T02:01:50;94828.75;;;8.91;60.44
57462;BME280;43308;47.306;8.608;2023-11-21T02:04:16;94837.84;;;8.90;60.50
57462;BME280;43308;47.306;8.608;2023-11-21T02:06:42;94836.56;;;8.88;61.10
57462;BME280;43308;47.306;8.608;2023-11-21T02:09:09;94827.22;;;8.90;60.54
57462;BME280;43308;47.306;8.608;2023-11-21T02:11:34;94828.59;;;8.88;61.00
57462;BME280;43308;47.306;8.608;2023-11-21T02:14:01;94837.94;;;8.85;60.56
57462;BME280;43308;47.306;8.608;2023-11-21T02:16:27;94836.06;;;8.86;60.78
57462;BME280;43308;47.306;8.608;2023-11-21T02:18:53;94834.78;;;8.83;60.93
57462;BME280;43308;47.306;8.608;2023-11-21T02:21:19;94830.94;;;8.89;59.25
57462;BME280;43308;47.306;8.608;2023-11-21T02:23:45;94829.75;;;8.95;58.64
57462;BME280;43308;47.306;8.608;2023-11-21T02:26:13;94831.34;;;8.96;59.40
57462;BME280;43308;47.306;8.608;2023-11-21T02:28:40;94824.22;;;8.92;59.75
57462;BME280;43308;47.306;8.608;2023-11-21T02:31:06;94817.34;;;8.91;60.08
57462;BME280;43308;47.306;8.608;2023-11-21T02:33:33;94821.88;;;8.90;59.64
57462;BME280;43308;47.306;8.608;2023-11-21T02:36:02;94821.56;;;8.92;59.71
57462;BME280;43308;47.306;8.608;2023-11-21T02:38:27;94825.03;;;8.92;59.27
57462;BME280;43308;47.306;8.608;2023-11-21T02:40:53;94824.22;;;8.92;58.93
57462;BME280;43308;47.306;8.608;2023-11-21T02:43:19;94824.91;;;8.97;59.35
57462;BME280;43308;47.306;8.608;2023-11-21T02:45:45;94819.41;;;8.94;59.33
57462;BME280;43308;47.306;8.608;2023-11-21T02:48:12;94821.28;;;8.93;59.77
57462;BME280;43308;47.306;8.608;2023-11-21T02:50:38;94814.19;;;8.89;60.41
57462;BME280;43308;47.306;8.608;2023-11-21T02:53:04;94824.34;;;8.87;61.09
57462;BME280;43308;47.306;8.608;2023-11-21T02:55:31;94831.25;;;8.88;61.95
57462;BME280;43308;47.306;8.608;2023-11-21T02:58:00;94839.13;;;8.79;62.99
57462;BME280;43308;47.306;8.608;2023-11-21T03:00:27;94842.28;;;8.68;65.32
57462;BME280;43308;47.306;8.608;2023-11-21T03:02:55;94840.66;;;8.53;67.06
57462;BME280;43308;47.306;8.608;2023-11-21T03:05:23;94831.31;;;8.42;67.35
57462;BME280;43308;47.306;8.608;2023-11-21T03:07:49;94830.75;;;8.26;69.35
57462;BME280;43308;47.306;8.608;2023-11-21T03:10:15;94822.16;;;8.16;70.78
57462;BME280;43308;47.306;8.608;2023-11-21T03:12:42;94819.00;;;8.14;71.40
57462;BME280;43308;47.306;8.608;2023-11-21T03:15:12;94811.09;;;8.09;71.34
57462;BME280;43308;47.306;8.608;2023-11-21T03:17:38;94812.50;;;8.06;72.73
57462;BME280;43308;47.306;8.608;2023-11-21T03:20:05;94788.25;;;7.94;74.04
57462;BME280;43308;47.306;8.608;2023-11-21T03:22:37;94801.75;;;7.97;73.61
57462;BME280;43308;47.306;8.608;2023-11-21T03:25:06;94791.00;;;7.89;74.54
57462;BME280;43308;47.306;8.608;2023-11-21T03:27:32;94802.31;;;7.94;75.85
57462;BME280;43308;47.306;8.608;2023-11-21T03:29:59;94796.91;;;7.86;76.72
57462;BME280;43308;47.306;8.608;2023-11-21T03:32:24;94811.88;;;7.95;76.50
57462;BME280;43308;47.306;8.608;2023-11-21T03:34:57;94822.22;;;7.97;76.74
57462;BME280;43308;47.306;8.608;2023-11-21T03:37:24;94827.03;;;7.95;77.06
57462;BME280;43308;47.306;8.608;2023-11-21T03:39:50;94813.81;;;7.90;77.86
57462;BME280;43308;47.306;8.608;2023-11-21T03:42:17;94831.66;;;7.89;77.62
57462;BME280;43308;47.306;8.608;2023-11-21T03:44:43;94829.28;;;7.88;77.51
57462;BME280;43308;47.306;8.608;2023-11-21T03:47:09;94836.75;;;7.86;74.23
57462;BME280;43308;47.306;8.608;2023-11-21T03:49:35;94832.50;;;7.85;74.56
57462;BME280;43308;47.306;8.608;2023-11-21T03:52:01;94832.31;;;7.81;73.34
57462;BME280;43308;47.306;8.608;2023-11-21T03:54:30;94834.97;;;7.81;71.08
57462;BME280;43308;47.306;8.608;2023-11-21T03:56:56;94833.88;;;7.82;71.95
57462;BME280;43308;47.306;8.608;2023-11-21T03:59:22;94838.63;;;7.85;72.93
57462;BME280;43308;47.306;8.608;2023-11-21T04:01:50;94846.88;;;7.84;73.33
57462;BME280;43308;47.306;8.608;2023-11-21T04:04:16;94847.38;;;7.86;74.65
57462;BME280;43308;47.306;8.608;2023-11-21T04:06:42;94837.34;;;7.83;76.87
57462;BME280;43308;47.306;8.608;2023-11-21T04:09:07;94843.63;;;7.87;77.07
57462;BME280;43308;47.306;8.608;2023-11-21T04:11:34;94840.50;;;7.85;76.77
57462;BME280;43308;47.306;8.608;2023-11-21T04:13:59;94845.81;;;7.85;74.40
57462;BME280;43308;47.306;8.608;2023-11-21T04:16:25;94840.28;;;7.81;74.45
57462;BME280;43308;47.306;8.608;2023-11-21T04:18:51;94848.25;;;7.81;74.57
57462;BME280;43308;47.306;8.608;2023-11-21T04:21:17;94850.69;;;7.78;73.56
57462;BME280;43308;47.306;8.608;2023-11-21T04:23:43;94857.38;;;7.75;72.97
57462;BME280;43308;47.306;8.608;2023-11-21T04:26:08;94851.84;;;7.72;74.54
57462;BME280;43308;47.306;8.608;2023-11-21T04:28:34;94848.47;;;7.66;75.13
57462;BME280;43308;47.306;8.608;2023-11-21T04:31:01;94846.69;;;7.62;74.00
57462;BME280;43308;47.306;8.608;2023-11-21T04:33:27;94850.72;;;7.59;74.34
57462;BME280;43308;47.306;8.608;2023-11-21T04:35:53;94850.50;;;7.56;74.05
57462;BME280;43308;47.306;8.608;2023-11-21T04:38:19;94856.91;;;7.55;73.75
57462;BME280;43308;47.306;8.608;2023-11-21T04:40:45;94857.44;;;7.52;74.71
57462;BME280;43308;47.306;8.608;2023-11-21T04:43:11;94861.47;;;7.49;75.12
57462;BME280;43308;47.306;8.608;2023-11-21T04:45:37;94849.28;;;7.48;74.97
57462;BME280;43308;47.306;8.608;2023-11-21T04:48:03;94850.63;;;7.45;73.91
57462;BME280;43308;47.306;8.608;2023-11-21T04:50:29;94851.94;;;7.48;75.12
57462;BME280;43308;47.306;8.608;2023-11-21T04:52:55;94846.47;;;7.39;74.30
57462;BME280;43308;47.306;8.608;2023-11-21T04:55:22;94857.03;;;7.44;74.28
57462;BME280;43308;47.306;8.608;2023-11-21T04:57:50;94855.22;;;7.40;75.26
57462;BME280;43308;47.306;8.608;2023-11-21T05:00:17;94858.09;;;7.43;76.42
57462;BME280;43308;47.306;8.608;2023-11-21T05:02:43;94855.75;;;7.42;76.77
57462;BME280;43308;47.306;8.608;2023-11-21T05:05:09;94861.25;;;7.45;77.11
57462;BME280;43308;47.306;8.608;2023-11-21T05:07:36;94862.84;;;7.46;76.01
57462;BME280;43308;47.306;8.608;2023-11-21T05:10:05;94859.38;;;7.46;76.46
57462;BME280;43308;47.306;8.608;2023-11-21T05:12:34;94868.38;;;7.50;76.68
57462;BME280;43308;47.306;8.608;2023-11-21T05:15:07;94869.44;;;7.49;78.27
57462;BME280;43308;47.306;8.608;2023-11-21T05:17:36;94867.56;;;7.49;78.31
57462;BME280;43308;47.306;8.608;2023-11-21T05:20:03;94861.19;;;7.51;78.60
57462;BME280;43308;47.306;8.608;2023-11-21T05:22:30;94865.22;;;7.48;79.00
57462;BME280;43308;47.306;8.608;2023-11-21T05:24:56;94863.63;;;7.47;79.10
57462;BME280;43308;47.306;8.608;2023-11-21T05:27:21;94866.38;;;7.42;78.84
57462;BME280;43308;47.306;8.608;2023-11-21T05:29:47;94873.25;;;7.43;78.69
57462;BME280;43308;47.306;8.608;2023-11-21T05:32:13;94870.31;;;7.44;78.81
57462;BME280;43308;47.306;8.608;2023-11-21T05:34:40;94866.38;;;7.42;78.00
57462;BME280;43308;47.306;8.608;2023-11-21T05:37:06;94881.44;;;7.46;78.50
57462;BME280;43308;47.306;8.608;2023-11-21T05:39:32;94875.63;;;7.44;78.80
57462;BME280;43308;47.306;8.608;2023-11-21T05:41:58;94887.22;;;7.48;78.64
57462;BME280;43308;47.306;8.608;2023-11-21T05:44:25;94881.34;;;7.52;78.54
57462;BME280;43308;47.306;8.608;2023-11-21T05:46:51;94876.34;;;7.50;78.28
57462;BME280;43308;47.306;8.608;2023-11-21T05:49:17;94887.03;;;7.45;78.08
57462;BME280;43308;47.306;8.608;2023-11-21T05:51:45;94883.66;;;7.39;78.69
57462;BME280;43308;47.306;8.608;2023-11-21T05:54:11;94887.88;;;7.40;79.27
57462;BME280;43308;47.306;8.608;2023-11-21T05:56:37;94890.31;;;7.37;77.30
57462;BME280;43308;47.306;8.608;2023-11-21T05:59:03;94893.06;;;7.32;77.37
57462;BME280;43308;47.306;8.608;2023-11-21T06:01:28;94902.09;;;7.31;76.99
57462;BME280;43308;47.306;8.608;2023-11-21T06:03:54;94892.53;;;7.30;77.16
57462;BME280;43308;47.306;8.608;2023-11-21T06:06:23;94889.59;;;7.31;76.60
57462;BME280;43308;47.306;8.608;2023-11-21T06:08:50;94895.72;;;7.32;76.35
57462;BME280;43308;47.306;8.608;2023-11-21T06:11:16;94887.22;;;7.30;75.47
57462;BME280;43308;47.306;8.608;2023-11-21T06:13:42;94896.56;;;7.27;75.63
57462;BME280;43308;47.306;8.608;2023-11-21T06:16:08;94896.56;;;7.27;75.01
57462;BME280;43308;47.306;8.608;2023-11-21T06:18:34;94901.84;;;7.27;74.91
57462;BME280;43308;47.306;8.608;2023-11-21T06:21:00;94893.66;;;7.24;75.08
57462;BME280;43308;47.306;8.608;2023-11-21T06:23:26;94899.78;;;7.24;75.21
57462;BME280;43308;47.306;8.608;2023-11-21T06:25:52;94898.19;;;7.23;75.67
57462;BME280;43308;47.306;8.608;2023-11-21T06:28:18;94905.09;;;7.24;76.12
57462;BME280;43308;47.306;8.608;2023-11-21T06:30:44;94914.13;;;7.23;76.84
57462;BME280;43308;47.306;8.608;2023-11-21T06:33:14;94910.41;;;7.24;76.75
57462;BME280;43308;47.306;8.608;2023-11-21T06:35:40;94913.06;;;7.24;77.91
57462;BME280;43308;47.306;8.608;2023-11-21T06:38:05;94909.09;;;7.22;77.14
57462;BME280;43308;47.306;8.608;2023-11-21T06:40:31;94914.41;;;7.22;77.28
57462;BME280;43308;47.306;8.608;2023-11-21T06:42:59;94907.03;;;7.19;78.41
57462;BME280;43308;47.306;8.608;2023-11-21T06:45:24;94904.59;;;7.22;78.45
57462;BME280;43308;47.306;8.608;2023-11-21T06:47:50;94912.25;;;7.24;77.97
57462;BME280;43308;47.306;8.608;2023-11-21T06:50:16;94916.00;;;7.23;78.35
57462;BME280;43308;47.306;8.608;2023-11-21T06:52:42;94910.97;;;7.21;78.82
57462;BME280;43308;47.306;8.608;2023-11-21T06:55:09;94913.13;;;7.19;79.17
57462;BME280;43308;47.306;8.608;2023-11-21T06:57:35;94923.19;;;7.22;79.32
57462;BME280;43308;47.306;8.608;2023-11-21T07:00:01;94923.19;;;7.22;79.37
57462;BME280;43308;47.306;8.608;2023-11-21T07:02:28;94922.66;;;7.20;79.96
57462;BME280;43308;47.306;8.608;2023-11-21T07:04:54;94924.25;;;7.21;79.75
57462;BME280;43308;47.306;8.608;2023-11-21T07:07:20;94927.38;;;7.23;79.84
57462;BME280;43308;47.306;8.608;2023-11-21T07:09:45;94929.28;;;7.23;79.49
57462;BME280;43308;47.306;8.608;2023-11-21T07:12:11;94914.69;;;7.20;79.82
57462;BME280;43308;47.306;8.608;2023-11-21T07:14:37;94921.31;;;7.23;79.63
57462;BME280;43308;47.306;8.608;2023-11-21T07:17:05;94919.72;;;7.22;79.97
57462;BME280;43308;47.306;8.608;2023-11-21T07:19:32;94924.97;;;7.27;79.43
57462;BME280;43308;47.306;8.608;2023-11-21T07:21:57;94929.69;;;7.30;79.61
57462;BME280;43308;47.306;8.608;2023-11-21T07:24:23;94925.19;;;7.30;79.88
57462;BME280;43308;47.306;8.608;2023-11-21T07:26:49;94926.56;;;7.28;80.28
57462;BME280;43308;47.306;8.608;2023-11-21T07:29:15;94920.66;;;7.31;80.34
57462;BME280;43308;47.306;8.608;2023-11-21T07:31:41;94937.09;;;7.33;80.66
57462;BME280;43308;47.306;8.608;2023-11-21T07:34:07;94933.16;;;7.30;80.84
57462;BME280;43308;47.306;8.608;2023-11-21T07:36:33;94940.06;;;7.31;80.66
57462;BME280;43308;47.306;8.608;2023-11-21T07:38:59;94934.44;;;7.33;80.91
57462;BME280;43308;47.306;8.608;2023-11-21T07:41:25;94929.66;;;7.35;80.62
57462;BME280;43308;47.306;8.608;2023-11-21T07:43:52;94938.41;;;7.35;80.97
57462;BME280;43308;47.306;8.608;2023-11-21T07:46:18;94935.75;;;7.35;80.75
57462;BME280;43308;47.306;8.608;2023-11-21T07:48:45;94939.97;;;7.36;80.42
57462;BME280;43308;47.306;8.608;2023-11-21T07:51:11;94941.56;;;7.37;80.39
57462;BME280;43308;47.306;8.608;2023-11-21T07:53:38;94933.53;;;7.42;79.12
57462;BME280;43308;47.306;8.608;2023-11-21T07:56:06;94935.91;;;7.44;79.49
57462;BME280;43308;47.306;8.608;2023-11-21T07:58:34;94940.09;;;7.50;79.74
57462;BME280;43308;47.306;8.608;2023-11-21T08:01:00;94939.50;;;7.53;80.04
57462;BME280;43308;47.306;8.608;2023-11-21T08:03:26;94941.81;;;7.60;79.73
57462;BME280;43308;47.306;8.608;2023-11-21T08:05:52;94939.66;;;7.62;78.12
57462;BME280;43308;47.306;8.608;2023-11-21T08:08:18;94944.13;;;7.66;78.16
57462;BME280;43308;47.306;8.608;2023-11-21T08:10:45;94933.00;;;7.64;77.77
57462;BME280;43308;47.306;8.608;2023-11-21T08:13:14;94930.84;;;7.66;78.03
57462;BME280;43308;47.306;8.608;2023-11-21T08:15:43;94937.19;;;7.70;78.74
57462;BME280;43308;47.306;8.608;2023-11-21T08:18:12;94943.78;;;7.73;79.20
57462;BME280;43308;47.306;8.608;2023-11-21T08:20:40;94948.50;;;7.76;79.24
57462;BME280;43308;47.306;8.608;2023-11-21T08:23:06;94947.44;;;7.77;79.35
57462;BME280;43308;47.306;8.608;2023-11-21T08:25:32;94948.44;;;7.81;78.56
57462;BME280;43308;47.306;8.608;2023-11-21T08:28:00;94951.09;;;7.81;79.18
57462;BME280;43308;47.306;8.608;2023-11-21T08:30:27;94940.97;;;7.83;78.13
57462;BME280;43308;47.306;8.608;2023-11-21T08:32:55;94943.63;;;7.83;76.78
57462;BME280;43308;47.306;8.608;2023-11-21T08:35:24;94941.47;;;7.85;76.56
57462;BME280;43308;47.306;8.608;2023-11-21T08:37:53;94941.75;;;7.83;76.40
57462;BME280;43308;47.306;8.608;2023-11-21T08:40:19;94944.72;;;7.82;76.92
57462;BME280;43308;47.306;8.608;2023-11-21T08:42:49;94958.13;;;7.72;77.13
57462;BME280;43308;47.306;8.608;2023-11-21T08:45:17;94956.53;;;7.71;77.64
57462;BME280;43308;47.306;8.608;2023-11-21T08:47:43;94951.78;;;7.68;77.93
57462;BME280;43308;47.306;8.608;2023-11-21T08:50:10;94964.22;;;7.72;77.84
57462;BME280;43308;47.306;8.608;2023-11-21T08:52:38;94966.09;;;7.72;78.27
57462;BME280;43308;47.306;8.608;2023-11-21T08:55:04;94955.25;;;7.68;78.25
57462;BME280;43308;47.306;8.608;2023-11-21T08:57:37;94967.47;;;7.69;78.32
57462;BME280;43308;47.306;8.608;2023-11-21T09:00:04;94966.75;;;7.64;78.37
57462;BME280;43308;47.306;8.608;2023-11-21T09:02:33;94960.19;;;7.56;78.93
57462;BME280;43308;47.306;8.608;2023-11-21T09:05:00;94966.00;;;7.58;79.51
57462;BME280;43308;47.306;8.608;2023-11-21T09:07:29;94970.25;;;7.59;80.29
57462;BME280;43308;47.306;8.608;2023-11-21T09:09:55;94962.00;;;7.61;79.41
57462;BME280;43308;47.306;8.608;2023-11-21T09:12:21;94964.94;;;7.59;79.46
57462;BME280;43308;47.306;8.608;2023-11-21T09:14:48;94971.63;;;7.57;79.80
57462;BME280;43308;47.306;8.608;2023-11-21T09:17:15;94971.88;;;7.55;80.36
57462;BME280;43308;47.306;8.608;2023-11-21T09:19:41;94978.78;;;7.56;80.54
57462;BME280;43308;47.306;8.608;2023-11-21T09:22:07;94984.31;;;7.60;80.54
57462;BME280;43308;47.306;8.608;2023-11-21T09:24:33;94980.31;;;7.62;80.72
57462;BME280;43308;47.306;8.608;2023-11-21T09:27:01;94985.03;;;7.65;80.63
57462;BME280;43308;47.306;8.608;2023-11-21T09:29:27;94993.16;;;7.74;80.52
57462;BME280;43308;47.306;8.608;2023-11-21T09:31:53;94987.22;;;7.82;81.21
57462;BME280;43308;47.306;8.608;2023-11-21T09:34:21;94983.66;;;7.91;81.31
57462;BME280;43308;47.306;8.608;2023-11-21T09:36:47;94985.38;;;8.01;80.58
57462;BME280;43308;47.306;8.608;2023-11-21T09:39:14;94994.19;;;8.15;79.81
57462;BME280;43308;47.306;8.608;2023-11-21T09:41:46;94982.44;;;8.21;79.22
57462;BME280;43308;47.306;8.608;2023-11-21T09:44:18;94989.78;;;8.29;79.04
57462;BME280;43308;47.306;8.608;2023-11-21T09:46:47;94977.13;;;8.40;77.88
57462;BME280;43308;47.306;8.608;2023-11-21T09:49:18;94979.69;;;8.45;77.40
57462;BME280;43308;47.306;8.608;2023-11-21T09:51:48;94985.50;;;8.47;77.18
57462;BME280;43308;47.306;8.608;2023-11-21T09:54:16;94983.38;;;8.49;76.88
57462;BME280;43308;47.306;8.608;2023-11-21T09:56:43;94989.16;;;8.51;76.46
57462;BME280;43308;47.306;8.608;2023-11-21T09:59:13;94993.06;;;8.59;75.81
57462;BME280;43308;47.306;8.608;2023-11-21T10:01:40;94988.00;;;8.57;75.19
57462;BME280;43308;47.306;8.608;2023-11-21T10:04:07;94990.19;;;8.55;74.70
57462;BME280;43308;47.306;8.608;2023-11-21T10:06:40;94990.53;;;8.48;75.25
57462;BME280;43308;47.306;8.608;2023-11-21T10:09:13;94990.63;;;8.43;75.15
57462;BME280;43308;47.306;8.608;2023-11-21T10:11:40;94986.66;;;8.41;75.13
57462;BME280;43308;47.306;8.608;2023-11-21T10:14:10;94986.19;;;8.39;75.55
57462;BME280;43308;47.306;8.608;2023-11-21T10:16:38;94982.44;;;8.40;76.17
57462;BME280;43308;47.306;8.608;2023-11-21T10:19:05;94982.22;;;8.36;75.79
57462;BME280;43308;47.306;8.608;2023-11-21T10:21:33;94982.28;;;8.31;76.29
57462;BME280;43308;47.306;8.608;2023-11-21T10:23:59;94978.06;;;8.30;76.71
57462;BME280;43308;47.306;8.608;2023-11-21T10:26:28;94971.66;;;8.31;76.88
57462;BME280;43308;47.306;8.608;2023-11-21T10:28:58;94966.84;;;8.33;76.99
57462;BME280;43308;47.306;8.608;2023-11-21T10:31:27;94972.66;;;8.35;77.64
57462;BME280;43308;47.306;8.608;2023-11-21T10:33:53;94961.94;;;8.40;77.37
57462;BME280;43308;47.306;8.608;2023-11-21T10:36:26;94963.25;;;8.43;77.28
57462;BME280;43308;47.306;8.608;2023-11-21T10:38:53;94965.31;;;8.46;76.98
57462;BME280;43308;47.306;8.608;2023-11-21T10:41:20;94960.22;;;8.49;77.14
57462;BME280;43308;47.306;8.608;2023-11-21T10:43:46;94966.50;;;8.53;77.57
57462;BME280;43308;47.306;8.608;2023-11-21T10:46:14;94965.94;;;8.57;77.47
57462;BME280;43308;47.306;8.608;2023-11-21T10:48:41;94968.59;;;8.57;76.24
57462;BME280;43308;47.306;8.608;2023-11-21T10:51:08;94968.09;;;8.54;76.09
57462;BME280;43308;47.306;8.608;2023-11-21T10:53:42;94967.16;;;8.64;75.12
57462;BME280;43308;47.306;8.608;2023-11-21T10:56:08;94958.47;;;8.72;74.90
57462;BME280;43308;47.306;8.608;2023-11-21T10:58:43;94966.09;;;8.79;75.68
57462;BME280;43308;47.306;8.608;2023-11-21T11:01:09;94963.94;;;8.81;75.78
57462;BME280;43308;47.306;8.608;2023-11-21T11:03:37;94965.00;;;8.80;75.42
57462;BME280;43308;47.306;8.608;2023-11-21T11:06:05;94969.25;;;8.81;75.77
57462;BME280;43308;47.306;8.608;2023-11-21T11:08:33;94959.69;;;8.80;75.06
57462;BME280;43308;47.306;8.608;2023-11-21T11:11:00;94970.91;;;8.77;74.89
57462;BME280;43308;47.306;8.608;2023-11-21T11:13:26;94967.25;;;8.73;74.86
57462;BME280;43308;47.306;8.608;2023-11-21T11:16:01;94964.59;;;8.73;74.43
57462;BME280;43308;47.306;8.608;2023-11-21T11:18:28;94960.66;;;8.70;74.55
57462;BME280;43308;47.306;8.608;2023-11-21T11:21:00;94968.84;;;8.74;75.00
57462;BME280;43308;47.306;8.608;2023-11-21T11:26:32;94974.28;;;8.82;75.30
57462;BME280;43308;47.306;8.608;2023-11-21T11:29:37;94962.34;;;8.80;76.03
57462;BME280;43308;47.306;8.608;2023-11-21T11:35:17;94963.22;;;8.75;75.75
57462;BME280;43308;47.306;8.608;2023-11-21T11:37:45;94961.53;;;8.66;75.74
57462;BME280;43308;47.306;8.608;2023-11-21T11:40:11;94958.69;;;8.62;76.40
57462;BME280;43308;47.306;8.608;2023-11-21T11:42:37;94964.75;;;8.63;76.89
57462;BME280;43308;47.306;8.608;2023-11-21T11:45:17;94951.44;;;8.63;77.25
57462;BME280;43308;47.306;8.608;2023-11-21T11:47:47;94949.31;;;8.65;77.20
57462;BME280;43308;47.306;8.608;2023-11-21T11:50:13;94960.31;;;8.90;77.74
57462;BME280;43308;47.306;8.608;2023-11-21T11:55:13;94962.50;;;9.29;75.01
57462;BME280;43308;47.306;8.608;2023-11-21T11:57:41;94961.03;;;9.37;73.39
57462;BME280;43308;47.306;8.608;2023-11-21T12:00:21;94960.84;;;9.47;72.53
57462;BME280;43308;47.306;8.608;2023-11-21T12:03:00;94955.19;;;9.48;72.57
57462;BME280;43308;47.306;8.608;2023-11-21T12:05:30;94950.84;;;9.52;73.30
57462;BME280;43308;47.306;8.608;2023-11-21T12:08:03;94954.31;;;9.67;72.25
57462;BME280;43308;47.306;8.608;2023-11-21T12:10:34;94957.53;;;9.77;71.53
57462;BME280;43308;47.306;8.608;2023-11-21T12:13:10;94950.25;;;9.83;71.20
57462;BME280;43308;47.306;8.608;2023-11-21T12:15:37;94961.25;;;9.90;72.19
57462;BME280;43308;47.306;8.608;2023-11-21T12:18:05;94961.25;;;9.90;71.87
57462;BME280;43308;47.306;8.608;2023-11-21T12:20:32;94958.72;;;9.85;70.78
57462;BME280;43308;47.306;8.608;2023-11-21T12:22:59;94956.75;;;9.77;71.62
57462;BME280;43308;47.306;8.608;2023-11-21T12:25:29;94957.44;;;9.69;71.84
57462;BME280;43308;47.306;8.608;2023-11-21T12:27:59;94957.44;;;9.69;72.08
57462;BME280;43308;47.306;8.608;2023-11-21T12:30:33;94962.72;;;9.60;72.82
57462;BME280;43308;47.306;8.608;2023-11-21T12:33:02;94963.00;;;9.58;72.96
57462;BME280;43308;47.306;8.608;2023-11-21T12:35:31;94957.38;;;9.60;72.78
57462;BME280;43308;47.306;8.608;2023-11-21T12:38:00;94956.09;;;9.57;71.97
57462;BME280;43308;47.306;8.608;2023-11-21T12:40:28;94959.34;;;9.54;71.91
57462;BME280;43308;47.306;8.608;2023-11-21T12:42:56;94960.72;;;9.52;72.03
57462;BME280;43308;47.306;8.608;2023-11-21T12:45:23;94966.84;;;9.52;71.91
57462;BME280;43308;47.306;8.608;2023-11-21T12:47:55;94970.19;;;9.58;72.46
57462;BME280;43308;47.306;8.608;2023-11-21T12:50:26;94959.25;;;9.59;71.99
57462;BME280;43308;47.306;8.608;2023-11-21T12:53:00;94972.09;;;9.57;71.54
57462;BME280;43308;47.306;8.608;2023-11-21T12:55:30;94966.84;;;9.52;72.41
57462;BME280;43308;47.306;8.608;2023-11-21T12:57:57;94969.81;;;9.51;72.42
57462;BME280;43308;47.306;8.608;2023-11-21T13:00:50;94955.38;;;9.52;72.50
57462;BME280;43308;47.306;8.608;2023-11-21T13:03:16;94966.06;;;9.52;71.75
57462;BME280;43308;47.306;8.608;2023-11-21T13:05:46;94966.84;;;9.52;71.60
57462;BME280;43308;47.306;8.608;2023-11-21T13:08:16;94969.91;;;9.46;72.10
57462;BME280;43308;47.306;8.608;2023-11-21T13:10:46;94972.97;;;9.39;72.31
57462;BME280;43308;47.306;8.608;2023-11-21T13:13:15;94966.66;;;9.35;72.82
57462;BME280;43308;47.306;8.608;2023-11-21T13:15:49;94974.16;;;9.33;72.57
57462;BME280;43308;47.306;8.608;2023-11-21T13:18:15;94971.09;;;9.26;72.32
57462;BME280;43308;47.306;8.608;2023-11-21T13:20:43;94970.50;;;9.16;72.85